LPPT/LIS METAR and TAF weather

Enter ICAO airport designator
Station Type Date Time Source
LPPT METAR 2019/08/18 09:00 UTC NOAA

LPPT 180900Z 31003KT 200V010 9999 FEW010 SCT016 23/19 Q1017


Station Type Date Time Source
LPPT Decoded METAR 2019/08/18 09:00 UTC NOAA

Station name not available
Aug 18, 2019 - 05:00 AM EDT / 2019.08.18 0900 UTC
Wind: from the NW (310 degrees) at 3 MPH (3 KT) (direction variable):0
Visibility: greater than 7 mile(s):0
Sky conditions: partly cloudy
Temperature: 73 F (23 C)
Dew Point: 66 F (19 C)
Relative Humidity: 78%
Pressure (altimeter): 30.03 in. Hg (1017 hPa)
ob: LPPT 180900Z 31003KT 200V010 9999 FEW010 SCT016 23/19 Q1017
cycle: 9

Station Type Date Time Source
LPPT TAF 2019/08/18 06:18 UTC NOAA

TAF TAF LPPT 180500Z 1806/1912 34007KT 9999 SCT010
TEMPO 1806/1808 BKN008 PROB30
TEMPO 1806/1808 2000 BR BKN003
BECMG 1808/1810 SCT020 PROB40
TEMPO 1812/1815 6000 -RA BKN020
BECMG 1815/1817 33012KT CAVOK

Example: see airport list